Desert Spring — V7XQ8 — position and weather

sailwx.info

Track history (hours):
 
Tides and Currents Weather Stations Pressure Air Temp Water Temp Dewpoint Dewpoint Depression Visibility Wind Speed Wind Dir Waves Ship Positions

Desert Spring

Last reported at 2015-Jan-29 16:28 UTC. Time now 2015-Mar-29 12:27 UTC.
Position S 29°44' E 031°38'.
Warning: this ship's position is 58 days out of date.

Length 193 m; draft 12.5 m.

Type: Cargo ship. MMSI: 538004547.

Date/timePositionNaut miles runAvg speedWind from/ knotsBaromVisibWave heightAir tempDewpointWater temp
2015-Jan-29 16:28S 29°44' E 031°38'8 8.9
2015-Jan-29 15:33S 29°45' E 031°29'1110.6
2015-Jan-29 14:33S 29°48' E 031°17'1111.4
2015-Jan-29 13:33S 29°51' E 031°05'2 2.5
2015-Jan-29 12:33S 29°52' E 031°02'0 0.0
2015-Jan-29 11:30S 29°52' E 031°02'0 0.0
2015-Jan-29 10:30S 29°52' E 031°02'0 0.0
2015-Jan-29 09:30S 29°52' E 031°02'0 0.0
2015-Jan-29 08:30S 29°52' E 031°02'0 0.0
2015-Jan-29 07:24S 29°52' E 031°02'0 0.0
2015-Jan-29 06:24S 29°52' E 031°02'0 0.0
2015-Jan-29 05:18S 29°52' E 031°02'0 0.0
2015-Jan-29 04:30S 29°52' E 031°02'0 0.0
2015-Jan-29 03:24S 29°52' E 031°02'0 0.3
2015-Jan-29 02:33S 29°52' E 031°02'5 4.8
2015-Jan-29 01:32S 29°49' E 031°06'5 5.1
2015-Jan-29 00:33S 29°45' E 031°10'0 0.1
2015-Jan-28 23:29S 29°45' E 031°10'0 0.0
2015-Jan-28 22:29S 29°45' E 031°10'0 0.0
2015-Jan-28 21:29S 29°45' E 031°10'0 0.0
2015-Jan-28 20:23S 29°45' E 031°10'0 0.0
2015-Jan-28 19:17S 29°45' E 031°10'0 0.0
2015-Jan-28 17:29S 29°45' E 031°10'0 0.0
2015-Jan-28 16:29S 29°45' E 031°10'0 0.0
2015-Jan-28 15:17S 29°45' E 031°10'0 0.0
2015-Jan-28 14:23S 29°45' E 031°10'0 0.0
2015-Jan-28 13:29S 29°45' E 031°10'0 0.0
2015-Jan-28 12:29S 29°45' E 031°10'0 0.0
2015-Jan-28 11:11S 29°45' E 031°10'0 0.0
2015-Jan-28 10:17S 29°45' E 031°10'0 0.0
2015-Jan-28 09:23S 29°45' E 031°10'0 0.0
2015-Jan-28 08:29S 29°45' E 031°10'0 0.0
2015-Jan-28 07:17S 29°45' E 031°10'0 0.0
2015-Jan-28 06:29S 29°45' E 031°10'0 0.0
2015-Jan-28 05:17S 29°45' E 031°10'0 0.0
2015-Jan-28 04:23S 29°45' E 031°10'0 0.0
2015-Jan-28 03:23S 29°45' E 031°10'0 0.0
2015-Jan-28 02:29S 29°45' E 031°10'0 0.0
2015-Jan-28 01:29S 29°45' E 031°10'0 0.0
2015-Jan-28 00:29S 29°45' E 031°10'0 0.0
2015-Jan-27 23:29S 29°45' E 031°10'0 0.0
2015-Jan-27 22:29S 29°45' E 031°10'0 0.0
2015-Jan-27 21:23S 29°45' E 031°10'0 0.0
2015-Jan-27 20:29S 29°45' E 031°10'0 0.0
2015-Jan-27 19:17S 29°45' E 031°10'3 3.6
2015-Jan-27 18:33S 29°47' E 031°08'1 0.8
2015-Jan-27 17:33S 29°48' E 031°08'3 3.0
2015-Jan-27 16:33S 29°46' E 031°10'0 0.3
2015-Jan-27 15:23S 29°45' E 031°10'0 0.0
2015-Jan-27 14:29S 29°45' E 031°10'0 0.0
2015-Jan-27 12:05S 29°45' E 031°10'0 0.0
2015-Jan-27 11:23S 29°45' E 031°10'0 0.2
2015-Jan-27 10:33S 29°45' E 031°10'8 7.8
2015-Jan-27 09:33S 29°53' E 031°09'10 9.7
2015-Jan-27 08:33S 30°02' E 031°04'8 7.5
2015-Jan-27 07:33S 30°09' E 030°60'351 7.1
2015-Jan-25 06:12S 34°24' E 026°14'94 7.2
2015-Jan-24 17:09S 35°07' E 024°33'  
Track history (hours):
 
Tides and Currents Weather Stations Pressure Air Temp Water Temp Dewpoint Dewpoint Depression Visibility Wind Speed Wind Dir Waves Ship Positions

Desert Spring

Last reported at 2015-Jan-29 16:28 UTC. Time now 2015-Mar-29 12:27 UTC.
Position S 29°44' E 031°38'.
Warning: this ship's position is 58 days out of date.

Length 193 m; draft 12.5 m.

Type: Cargo ship. MMSI: 538004547.

Date/timePositionNaut miles runAvg speedWind from/ knotsBaromVisibWave heightAir tempDewpointWater temp
2015-Jan-29 16:28S 29°44' E 031°38'8 8.9
2015-Jan-29 15:33S 29°45' E 031°29'1110.6
2015-Jan-29 14:33S 29°48' E 031°17'1111.4
2015-Jan-29 13:33S 29°51' E 031°05'2 2.5
2015-Jan-29 12:33S 29°52' E 031°02'0 0.0
2015-Jan-29 11:30S 29°52' E 031°02'0 0.0
2015-Jan-29 10:30S 29°52' E 031°02'0 0.0
2015-Jan-29 09:30S 29°52' E 031°02'0 0.0
2015-Jan-29 08:30S 29°52' E 031°02'0 0.0
2015-Jan-29 07:24S 29°52' E 031°02'0 0.0
2015-Jan-29 06:24S 29°52' E 031°02'0 0.0
2015-Jan-29 05:18S 29°52' E 031°02'0 0.0
2015-Jan-29 04:30S 29°52' E 031°02'0 0.0
2015-Jan-29 03:24S 29°52' E 031°02'0 0.3
2015-Jan-29 02:33S 29°52' E 031°02'5 4.8
2015-Jan-29 01:32S 29°49' E 031°06'5 5.1
2015-Jan-29 00:33S 29°45' E 031°10'0 0.1
2015-Jan-28 23:29S 29°45' E 031°10'0 0.0
2015-Jan-28 22:29S 29°45' E 031°10'0 0.0
2015-Jan-28 21:29S 29°45' E 031°10'0 0.0
2015-Jan-28 20:23S 29°45' E 031°10'0 0.0
2015-Jan-28 19:17S 29°45' E 031°10'0 0.0
2015-Jan-28 17:29S 29°45' E 031°10'0 0.0
2015-Jan-28 16:29S 29°45' E 031°10'0 0.0
2015-Jan-28 15:17S 29°45' E 031°10'0 0.0
2015-Jan-28 14:23S 29°45' E 031°10'0 0.0
2015-Jan-28 13:29S 29°45' E 031°10'0 0.0
2015-Jan-28 12:29S 29°45' E 031°10'0 0.0
2015-Jan-28 11:11S 29°45' E 031°10'0 0.0
2015-Jan-28 10:17S 29°45' E 031°10'0 0.0
2015-Jan-28 09:23S 29°45' E 031°10'0 0.0
2015-Jan-28 08:29S 29°45' E 031°10'0 0.0
2015-Jan-28 07:17S 29°45' E 031°10'0 0.0
2015-Jan-28 06:29S 29°45' E 031°10'0 0.0
2015-Jan-28 05:17S 29°45' E 031°10'0 0.0
2015-Jan-28 04:23S 29°45' E 031°10'0 0.0
2015-Jan-28 03:23S 29°45' E 031°10'0 0.0
2015-Jan-28 02:29S 29°45' E 031°10'0 0.0
2015-Jan-28 01:29S 29°45' E 031°10'0 0.0
2015-Jan-28 00:29S 29°45' E 031°10'0 0.0
2015-Jan-27 23:29S 29°45' E 031°10'0 0.0
2015-Jan-27 22:29S 29°45' E 031°10'0 0.0
2015-Jan-27 21:23S 29°45' E 031°10'0 0.0
2015-Jan-27 20:29S 29°45' E 031°10'0 0.0
2015-Jan-27 19:17S 29°45' E 031°10'3 3.6
2015-Jan-27 18:33S 29°47' E 031°08'1 0.8
2015-Jan-27 17:33S 29°48' E 031°08'3 3.0
2015-Jan-27 16:33S 29°46' E 031°10'0 0.3
2015-Jan-27 15:23S 29°45' E 031°10'0 0.0
2015-Jan-27 14:29S 29°45' E 031°10'0 0.0
2015-Jan-27 12:05S 29°45' E 031°10'0 0.0
2015-Jan-27 11:23S 29°45' E 031°10'0 0.2
2015-Jan-27 10:33S 29°45' E 031°10'8 7.8
2015-Jan-27 09:33S 29°53' E 031°09'10 9.7
2015-Jan-27 08:33S 30°02' E 031°04'8 7.5
2015-Jan-27 07:33S 30°09' E 030°60'351 7.1
2015-Jan-25 06:12S 34°24' E 026°14'94 7.2
2015-Jan-24 17:09S 35°07' E 024°33'  

Dump ship's entire track history